createdAt,value
2022-11-05T00:01:25.691Z,69.36
2022-11-05T00:03:52.252Z,69.91
2022-11-05T00:06:18.772Z,70.44
2022-11-05T00:08:45.281Z,69.45
2022-11-05T00:11:16.853Z,70.21
2022-11-05T00:13:44.619Z,69.55
2022-11-05T00:16:12.362Z,69.02
2022-11-05T00:18:38.968Z,69.84
2022-11-05T00:21:05.795Z,71.33
2022-11-05T00:23:32.191Z,70.12
2022-11-05T00:26:00.482Z,69.53
2022-11-05T00:28:28.260Z,70.09
2022-11-05T00:31:00.292Z,71.46
2022-11-05T00:33:28.117Z,71.07
2022-11-05T00:35:54.796Z,70.36
2022-11-05T00:38:21.242Z,70.55
2022-11-05T00:40:47.790Z,69.65
2022-11-05T00:43:14.329Z,71.02
2022-11-05T00:45:40.810Z,71.51
2022-11-05T00:48:07.357Z,71.46
2022-11-05T00:50:35.160Z,74.50
2022-11-05T00:53:01.997Z,73.09
2022-11-05T00:55:32.144Z,73.01
2022-11-05T00:57:59.118Z,73.33
2022-11-05T01:00:27.714Z,72.44
2022-11-05T01:02:57.599Z,70.68
2022-11-05T01:05:24.048Z,70.53
2022-11-05T01:07:53.465Z,71.83
2022-11-05T01:10:20.715Z,71.55
2022-11-05T01:12:47.603Z,71.25
2022-11-05T01:15:14.858Z,71.83
2022-11-05T01:17:41.394Z,72.71
2022-11-05T01:20:08.730Z,71.98
2022-11-05T01:22:35.166Z,73.31
2022-11-05T01:25:03.017Z,72.17
2022-11-05T01:27:29.499Z,71.87
2022-11-05T01:29:56.122Z,72.27
2022-11-05T01:32:22.594Z,71.76
2022-11-05T01:34:48.996Z,71.66
2022-11-05T01:37:15.406Z,70.89
2022-11-05T01:39:41.810Z,71.06
2022-11-05T01:42:18.970Z,72.14
2022-11-05T01:44:54.071Z,71.27
2022-11-05T01:47:29.098Z,71.68
2022-11-05T01:49:59.071Z,72.45
2022-11-05T01:52:28.491Z,71.52
2022-11-05T01:54:55.814Z,71.87
2022-11-05T01:57:23.819Z,70.84
2022-11-05T01:59:55.452Z,71.87
2022-11-05T02:02:23.204Z,71.56
2022-11-05T02:04:54.041Z,71.07
2022-11-05T02:07:21.480Z,69.82
2022-11-05T02:09:51.084Z,71.25
2022-11-05T02:12:19.543Z,71.33
2022-11-05T02:14:47.299Z,72.85
2022-11-05T02:17:23.232Z,73.05
2022-11-05T02:20:14.384Z,71.13
2022-11-05T02:23:05.302Z,71.69
2022-11-05T02:25:57.986Z,73.30
2022-11-05T02:28:49.886Z,70.63
2022-11-05T02:31:25.810Z,71.50
2022-11-05T02:34:00.379Z,71.72
2022-11-05T02:36:38.661Z,74.21
2022-11-05T02:39:20.800Z,71.50
2022-11-05T02:41:59.331Z,71.15
2022-11-05T02:44:39.473Z,71.08
2022-11-05T02:47:17.953Z,70.25
2022-11-05T02:49:53.882Z,71.23
2022-11-05T02:52:27.260Z,70.27
2022-11-05T02:54:59.418Z,70.48
2022-11-05T02:57:29.448Z,70.35
2022-11-05T03:00:04.641Z,71.30
2022-11-05T03:02:32.873Z,69.86
2022-11-05T03:05:00.658Z,70.75
2022-11-05T03:07:44.412Z,70.54
2022-11-05T03:10:33.470Z,72.68
2022-11-05T03:13:12.765Z,72.45
2022-11-05T03:15:57.461Z,73.59
2022-11-05T03:18:35.390Z,72.72
2022-11-05T03:21:06.614Z,72.39
2022-11-05T03:23:40.236Z,74.02
2022-11-05T03:26:14.246Z,70.48
2022-11-05T03:28:44.074Z,70.11
2022-11-05T03:31:13.174Z,70.69
2022-11-05T03:33:43.351Z,71.41
2022-11-05T03:36:13.662Z,71.58
2022-11-05T03:38:44.001Z,71.20
2022-11-05T03:41:15.194Z,70.54
2022-11-05T03:43:46.674Z,69.70
2022-11-05T03:46:20.774Z,69.91
2022-11-05T03:48:52.168Z,71.33
2022-11-05T03:51:28.645Z,70.41
2022-11-05T03:53:57.634Z,70.99
2022-11-05T03:56:30.653Z,69.95
2022-11-05T03:58:59.388Z,70.16
2022-11-05T04:01:26.428Z,71.27
2022-11-05T04:03:54.466Z,71.83
2022-11-05T04:06:20.903Z,71.48
2022-11-05T04:08:47.390Z,71.08
2022-11-05T04:11:13.982Z,70.48
2022-11-05T04:13:40.365Z,72.30
2022-11-05T04:16:07.179Z,71.03
2022-11-05T04:18:33.594Z,70.72
2022-11-05T04:21:01.353Z,70.77
2022-11-05T04:23:27.772Z,70.56
2022-11-05T04:25:54.311Z,71.06
2022-11-05T04:28:20.786Z,69.97
2022-11-05T04:30:47.194Z,71.02
2022-11-05T04:33:15.830Z,70.39
2022-11-05T04:35:43.949Z,69.95
2022-11-05T04:38:13.282Z,71.73
2022-11-05T04:40:39.675Z,71.15
2022-11-05T04:43:10.595Z,70.50
2022-11-05T04:45:41.192Z,70.48
2022-11-05T04:48:07.661Z,70.39
2022-11-05T04:50:34.878Z,69.87
2022-11-05T04:53:01.309Z,70.12
2022-11-05T04:55:29.306Z,70.69
2022-11-05T04:57:55.726Z,70.60
2022-11-05T05:00:23.739Z,70.76
2022-11-05T05:02:50.176Z,71.79
2022-11-05T05:05:16.867Z,70.73
2022-11-05T05:07:43.470Z,71.26
2022-11-05T05:10:10.806Z,71.14
2022-11-05T05:12:38.538Z,71.64
2022-11-05T05:15:06.045Z,72.30
2022-11-05T05:17:32.599Z,72.22
2022-11-05T05:19:58.991Z,71.37
2022-11-05T05:22:25.527Z,71.61
2022-11-05T05:24:53.122Z,71.60
2022-11-05T05:27:19.716Z,70.49
2022-11-05T05:29:47.628Z,70.56
2022-11-05T05:32:14.050Z,70.79
2022-11-05T05:34:40.451Z,72.07
2022-11-05T05:37:06.880Z,70.44
2022-11-05T05:39:33.286Z,71.69
2022-11-05T05:41:59.670Z,71.23
2022-11-05T05:44:26.116Z,71.32
2022-11-05T05:46:54.883Z,71.50
2022-11-05T05:49:21.488Z,71.19
2022-11-05T05:51:48.616Z,69.73
2022-11-05T05:54:15.399Z,69.88
2022-11-05T05:56:42.776Z,70.73
2022-11-05T05:59:09.237Z,71.02
2022-11-05T06:01:35.987Z,71.74
2022-11-05T06:04:04.190Z,70.85
2022-11-05T06:06:30.748Z,70.00
2022-11-05T06:08:57.183Z,70.21
2022-11-05T06:11:24.755Z,70.53
2022-11-05T06:13:51.327Z,72.21
2022-11-05T06:16:17.978Z,70.87
2022-11-05T06:18:44.393Z,70.35
2022-11-05T06:21:14.034Z,71.16
2022-11-05T06:23:42.151Z,69.19
2022-11-05T06:26:10.922Z,71.21
2022-11-05T06:28:37.710Z,71.29
2022-11-05T06:31:04.579Z,69.69
2022-11-05T06:33:31.274Z,69.88
2022-11-05T06:35:58.926Z,69.22
2022-11-05T06:38:27.098Z,69.46
2022-11-05T06:40:53.491Z,69.34
2022-11-05T06:43:19.933Z,70.13
2022-11-05T06:45:46.319Z,68.91
2022-11-05T06:48:12.696Z,68.66
2022-11-05T06:50:39.102Z,69.95
2022-11-05T06:53:05.513Z,71.02
2022-11-05T06:55:33.251Z,72.15
2022-11-05T06:57:59.703Z,72.46
2022-11-05T07:00:26.185Z,71.06
2022-11-05T07:02:52.661Z,71.41
2022-11-05T07:05:19.233Z,70.54
2022-11-05T07:07:45.870Z,70.32
2022-11-05T07:10:15.155Z,70.46
2022-11-05T07:12:43.331Z,72.03
2022-11-05T07:15:11.504Z,70.59
2022-11-05T07:17:38.022Z,71.01
2022-11-05T07:20:06.090Z,70.22
2022-11-05T07:22:32.541Z,70.58
2022-11-05T07:24:58.925Z,70.36
2022-11-05T07:27:25.433Z,70.06
2022-11-05T07:29:53.222Z,70.14
2022-11-05T07:32:19.595Z,69.17
2022-11-05T07:34:46.001Z,69.04
2022-11-05T07:37:12.437Z,68.62
2022-11-05T07:39:38.850Z,70.46
2022-11-05T07:42:05.496Z,69.95
2022-11-05T07:44:31.885Z,70.03
2022-11-05T07:46:59.618Z,69.85
2022-11-05T07:49:26.027Z,70.38
2022-11-05T07:51:52.439Z,69.44
2022-11-05T07:54:18.853Z,69.73
2022-11-05T07:56:46.639Z,71.23
2022-11-05T07:59:13.097Z,70.13
2022-11-05T08:01:39.641Z,69.60
2022-11-05T08:04:07.746Z,69.00
2022-11-05T08:06:34.134Z,69.50
2022-11-05T08:09:00.617Z,68.72
2022-11-05T08:11:27.013Z,71.05
2022-11-05T08:13:53.451Z,69.06
2022-11-05T08:16:19.939Z,70.44
2022-11-05T08:18:46.389Z,68.70
2022-11-05T08:21:14.112Z,69.66
2022-11-05T08:23:40.547Z,69.18
2022-11-05T08:26:07.151Z,69.00
2022-11-05T08:28:33.563Z,69.09
2022-11-05T08:30:59.945Z,70.72
2022-11-05T08:33:26.721Z,68.99
2022-11-05T08:35:53.255Z,67.87
2022-11-05T08:38:20.989Z,69.64
2022-11-05T08:40:54.506Z,68.87
2022-11-05T08:43:21.359Z,67.83
2022-11-05T08:45:47.836Z,69.08
2022-11-05T08:48:16.113Z,68.24
2022-11-05T08:50:43.701Z,68.04
2022-11-05T08:53:10.740Z,67.43
2022-11-05T08:55:38.935Z,67.11
2022-11-05T08:58:09.278Z,70.47
2022-11-05T09:00:37.223Z,68.12
2022-11-05T09:03:05.741Z,69.18
2022-11-05T09:05:34.108Z,69.37
2022-11-05T09:08:01.683Z,68.24
2022-11-05T09:10:28.546Z,67.63
2022-11-05T09:12:56.378Z,67.21
2022-11-05T09:15:23.303Z,67.56
2022-11-05T09:17:49.970Z,67.38
2022-11-05T09:20:16.414Z,66.76
2022-11-05T09:22:43.571Z,65.64
2022-11-05T09:25:10.332Z,65.78
2022-11-05T09:27:36.768Z,65.31
2022-11-05T09:30:05.757Z,65.93
2022-11-05T09:32:32.392Z,66.27
2022-11-05T09:34:58.831Z,66.53
2022-11-05T09:37:25.248Z,65.89
2022-11-05T09:39:51.687Z,67.40
2022-11-05T09:42:21.240Z,67.43
2022-11-05T09:44:51.488Z,66.23
2022-11-05T09:47:23.860Z,66.97
2022-11-05T09:49:53.840Z,66.09
2022-11-05T09:52:22.349Z,65.71
2022-11-05T09:54:49.566Z,65.38
2022-11-05T09:57:20.905Z,63.70
2022-11-05T09:59:51.008Z,64.67
2022-11-05T10:02:22.182Z,65.79
2022-11-05T10:04:51.964Z,64.94
2022-11-05T10:07:22.918Z,66.92
2022-11-05T10:09:53.553Z,66.30
2022-11-05T10:12:25.735Z,65.72
2022-11-05T10:15:05.579Z,64.29
2022-11-05T10:17:39.198Z,64.47
2022-11-05T10:20:13.406Z,64.44
2022-11-05T10:22:41.976Z,65.95
2022-11-05T10:25:17.675Z,66.17
2022-11-05T10:27:49.867Z,65.84
2022-11-05T10:30:16.642Z,65.32
2022-11-05T10:32:46.473Z,64.36
2022-11-05T10:35:15.342Z,64.28
2022-11-05T10:37:41.777Z,64.96
2022-11-05T10:40:16.718Z,66.47
2022-11-05T10:42:59.087Z,63.90
2022-11-05T10:45:34.944Z,64.49
2022-11-05T10:48:21.428Z,65.54
2022-11-05T10:50:48.245Z,64.08
2022-11-05T10:53:18.029Z,64.43
2022-11-05T10:55:47.197Z,65.26
2022-11-05T10:58:20.324Z,66.20
2022-11-05T11:01:04.700Z,64.73
2022-11-05T11:03:37.541Z,64.23
2022-11-05T11:06:12.502Z,63.75
2022-11-05T11:08:39.073Z,63.69
2022-11-05T11:11:10.329Z,65.27
2022-11-05T11:13:51.475Z,63.00
2022-11-05T11:16:21.979Z,62.53
2022-11-05T11:18:52.990Z,62.87
2022-11-05T11:21:20.378Z,63.22
2022-11-05T11:23:55.188Z,64.65
2022-11-05T11:26:24.173Z,62.76
2022-11-05T11:28:56.495Z,62.86
2022-11-05T11:31:25.158Z,61.91
2022-11-05T11:33:58.358Z,62.67
2022-11-05T11:36:31.822Z,62.25
2022-11-05T11:38:59.637Z,62.00
2022-11-05T11:41:31.071Z,62.03
2022-11-05T11:44:04.414Z,61.42
2022-11-05T11:46:33.900Z,64.47
2022-11-05T11:49:02.288Z,64.22
2022-11-05T11:51:31.246Z,63.27
2022-11-05T11:53:59.640Z,64.64
2022-11-05T11:56:26.631Z,62.16
2022-11-05T11:58:54.986Z,62.80
2022-11-05T12:01:47.354Z,61.30
2022-11-05T12:04:25.931Z,60.88
2022-11-05T12:07:04.830Z,60.98
2022-11-05T12:09:51.830Z,59.29
2022-11-05T12:12:25.904Z,60.62
2022-11-05T12:14:57.097Z,60.19
2022-11-05T12:17:38.682Z,61.09
2022-11-05T12:20:33.734Z,62.32
2022-11-05T12:23:11.636Z,61.33
2022-11-05T12:25:45.369Z,61.30
2022-11-05T12:28:26.358Z,60.01
2022-11-05T12:30:59.603Z,60.73
2022-11-05T12:33:38.261Z,59.36
2022-11-05T12:36:20.835Z,58.74
2022-11-05T12:39:05.539Z,59.57
2022-11-05T12:41:37.535Z,60.30
2022-11-05T12:44:20.495Z,60.51
2022-11-05T12:46:59.201Z,59.36
2022-11-05T12:49:37.626Z,60.25
2022-11-05T12:52:20.827Z,59.79
2022-11-05T12:54:58.411Z,59.26
2022-11-05T12:57:27.462Z,59.43
2022-11-05T13:00:01.868Z,60.01
2022-11-05T13:02:33.547Z,59.60
2022-11-05T13:05:06.115Z,58.91
2022-11-05T13:07:38.911Z,60.39
2022-11-05T13:10:13.946Z,58.57
2022-11-05T13:12:42.418Z,57.83
2022-11-05T13:15:26.522Z,57.71
2022-11-05T13:17:58.090Z,56.80
2022-11-05T13:20:28.593Z,57.33
2022-11-05T13:23:02.137Z,59.39
2022-11-05T13:25:30.996Z,58.17
2022-11-05T13:28:03.459Z,58.39
2022-11-05T13:30:33.519Z,58.44
2022-11-05T13:33:04.131Z,57.82
2022-11-05T13:35:37.175Z,56.63
2022-11-05T13:38:08.289Z,56.27
2022-11-05T13:40:44.529Z,56.42
2022-11-05T13:43:34.060Z,56.34
2022-11-05T13:46:25.144Z,55.83
2022-11-05T13:49:06.741Z,57.51
2022-11-05T13:51:48.226Z,56.25
2022-11-05T13:54:52.089Z,56.06
2022-11-05T13:57:32.019Z,57.05
2022-11-05T14:00:06.625Z,56.96
2022-11-05T14:02:38.499Z,55.86
2022-11-05T14:05:06.771Z,55.48
2022-11-05T14:07:36.367Z,55.68
2022-11-05T14:10:16.457Z,57.36
2022-11-05T14:12:47.727Z,55.31
2022-11-05T14:15:19.442Z,54.23
2022-11-05T14:17:58.526Z,55.40
2022-11-05T14:20:58.844Z,55.19
2022-11-05T14:23:50.077Z,55.95
2022-11-05T14:26:23.244Z,56.83
2022-11-05T14:29:11.585Z,56.88
2022-11-05T14:32:09.820Z,58.40
2022-11-05T14:34:42.362Z,55.95
2022-11-05T14:37:29.650Z,56.33
2022-11-05T14:39:56.896Z,56.11
2022-11-05T14:42:27.909Z,56.37
2022-11-05T14:44:58.411Z,58.10
2022-11-05T14:47:28.790Z,58.03
2022-11-05T14:49:59.867Z,57.09
2022-11-05T14:52:26.583Z,56.52
2022-11-05T14:54:55.501Z,55.54
2022-11-05T14:58:03.649Z,55.29
2022-11-05T15:00:48.609Z,58.11
2022-11-05T15:03:48.750Z,56.70
2022-11-05T15:06:26.884Z,56.65
2022-11-05T15:09:16.767Z,57.29
2022-11-05T15:11:50.919Z,57.55
2022-11-05T15:14:22.551Z,57.10
2022-11-05T15:16:54.027Z,56.12
2022-11-05T15:19:25.813Z,55.88
2022-11-05T15:21:56.463Z,57.06
2022-11-05T15:24:24.027Z,58.76
2022-11-05T15:26:58.918Z,57.67
2022-11-05T15:29:28.650Z,57.21
2022-11-05T15:31:56.449Z,56.99
2022-11-05T15:34:24.925Z,57.91
2022-11-05T15:36:54.983Z,59.10
2022-11-05T15:39:33.246Z,58.44
2022-11-05T15:42:03.218Z,58.42
2022-11-05T15:44:31.113Z,58.20
2022-11-05T15:47:13.925Z,58.14
2022-11-05T15:49:41.955Z,59.46
2022-11-05T15:52:11.666Z,58.44
2022-11-05T15:54:38.369Z,58.63
2022-11-05T15:57:05.145Z,58.47
2022-11-05T15:59:31.642Z,59.20
2022-11-05T16:02:05.692Z,59.87
2022-11-05T16:04:34.522Z,60.00
2022-11-05T16:07:07.653Z,60.36
2022-11-05T16:09:37.819Z,60.52
2022-11-05T16:12:22.583Z,61.62
2022-11-05T16:14:56.910Z,60.86
2022-11-05T16:17:25.392Z,59.95
2022-11-05T16:19:53.950Z,60.03
2022-11-05T16:22:20.639Z,60.79
2022-11-05T16:24:47.850Z,60.93
2022-11-05T16:27:19.377Z,60.00
2022-11-05T16:29:51.598Z,60.39
2022-11-05T16:32:25.409Z,60.23
2022-11-05T16:35:00.693Z,60.20
2022-11-05T16:37:29.327Z,60.12
2022-11-05T16:39:55.876Z,60.55
2022-11-05T16:42:49.715Z,61.50
2022-11-05T16:45:18.208Z,60.56
2022-11-05T16:47:45.306Z,60.17
2022-11-05T16:50:24.606Z,59.91
2022-11-05T16:52:51.377Z,61.42
2022-11-05T16:55:18.501Z,62.63
2022-11-05T16:57:49.193Z,61.56
2022-11-05T17:00:18.150Z,62.24
2022-11-05T17:02:44.757Z,61.80
2022-11-05T17:05:24.870Z,61.71
2022-11-05T17:07:52.015Z,60.26
2022-11-05T17:10:19.277Z,62.58
2022-11-05T17:12:46.575Z,60.86
2022-11-05T17:15:22.755Z,60.51
2022-11-05T17:17:49.918Z,60.66
2022-11-05T17:20:27.409Z,61.00
2022-11-05T17:22:54.023Z,61.09
2022-11-05T17:25:20.453Z,61.35
2022-11-05T17:27:46.918Z,60.69
2022-11-05T17:30:14.066Z,60.37
2022-11-05T17:32:41.012Z,61.86
2022-11-05T17:35:08.424Z,61.67
2022-11-05T17:37:36.228Z,61.96
2022-11-05T17:40:04.782Z,61.49
2022-11-05T17:42:31.291Z,61.53
2022-11-05T17:44:57.739Z,61.19
2022-11-05T17:47:25.682Z,60.47
2022-11-05T17:49:52.139Z,60.36
2022-11-05T17:52:18.642Z,60.49
2022-11-05T17:54:46.370Z,61.86
2022-11-05T17:57:12.916Z,61.57
2022-11-05T17:59:39.382Z,62.53
2022-11-05T18:02:06.427Z,61.49
2022-11-05T18:04:32.925Z,60.86
2022-11-05T18:06:59.387Z,59.82
2022-11-05T18:09:26.020Z,61.27
2022-11-05T18:11:54.171Z,62.30
2022-11-05T18:14:24.034Z,61.62
2022-11-05T18:16:51.413Z,59.99
2022-11-05T18:19:17.874Z,59.85
2022-11-05T18:21:44.306Z,60.52
2022-11-05T18:24:11.703Z,60.45
2022-11-05T18:26:38.084Z,59.24
2022-11-05T18:29:06.132Z,60.97
2022-11-05T18:31:32.551Z,61.04
2022-11-05T18:33:59.631Z,59.82
2022-11-05T18:36:27.716Z,60.09
2022-11-05T18:38:54.315Z,59.97
2022-11-05T18:41:20.900Z,60.39
2022-11-05T18:43:47.510Z,59.54
2022-11-05T18:46:35.707Z,59.38
2022-11-05T18:49:02.194Z,59.33
2022-11-05T18:51:28.726Z,59.55
2022-11-05T18:53:55.482Z,59.30
2022-11-05T18:56:22.581Z,59.08
2022-11-05T18:58:49.742Z,57.47
2022-11-05T19:01:20.071Z,58.72
2022-11-05T19:03:47.318Z,59.17
2022-11-05T19:06:13.796Z,60.23
2022-11-05T19:08:40.654Z,59.86
2022-11-05T19:11:09.172Z,60.40
2022-11-05T19:13:36.092Z,59.54
2022-11-05T19:16:05.528Z,60.15
2022-11-05T19:18:33.441Z,60.85
2022-11-05T19:20:59.872Z,60.77
2022-11-05T19:23:26.271Z,60.29
2022-11-05T19:25:52.707Z,59.64
2022-11-05T19:28:19.118Z,59.52
2022-11-05T19:30:45.611Z,59.92
2022-11-05T19:33:12.055Z,59.69
2022-11-05T19:35:41.609Z,59.47
2022-11-05T19:38:08.090Z,59.93
2022-11-05T19:40:36.842Z,59.66
2022-11-05T19:43:03.293Z,58.27
2022-11-05T19:45:43.989Z,59.07
2022-11-05T19:48:16.169Z,59.94
2022-11-05T19:50:47.149Z,59.03
2022-11-05T19:53:13.560Z,58.82
2022-11-05T19:55:40.327Z,60.47
2022-11-05T19:58:07.460Z,59.12
2022-11-05T20:00:34.002Z,59.44
2022-11-05T20:03:00.632Z,60.39
2022-11-05T20:05:27.171Z,60.01
2022-11-05T20:07:55.085Z,60.75
2022-11-05T20:10:21.582Z,60.27
2022-11-05T20:12:48.542Z,60.17
2022-11-05T20:15:15.031Z,59.23
2022-11-05T20:17:41.475Z,60.18
2022-11-05T20:20:08.842Z,59.68
2022-11-05T20:22:35.482Z,60.50
2022-11-05T20:25:03.465Z,60.23
2022-11-05T20:27:29.905Z,60.08
2022-11-05T20:29:56.309Z,59.74
2022-11-05T20:32:22.729Z,60.31
2022-11-05T20:34:49.269Z,59.59
2022-11-05T20:37:15.732Z,59.03
2022-11-05T20:39:42.152Z,60.22
2022-11-05T20:42:09.961Z,59.53
2022-11-05T20:44:36.465Z,59.37
2022-11-05T20:47:02.926Z,61.38
2022-11-05T20:49:29.490Z,60.45
2022-11-05T20:51:55.976Z,60.32
2022-11-05T20:54:22.654Z,60.92
2022-11-05T20:56:49.135Z,60.58
2022-11-05T20:59:17.039Z,60.95
2022-11-05T21:01:43.665Z,60.25
2022-11-05T21:04:10.306Z,61.32
2022-11-05T21:06:36.738Z,60.55
2022-11-05T21:09:04.014Z,60.04
2022-11-05T21:11:34.123Z,59.40
2022-11-05T21:14:00.615Z,60.11
2022-11-05T21:16:28.372Z,59.72
2022-11-05T21:18:54.833Z,62.08
2022-11-05T21:21:21.381Z,61.26
2022-11-05T21:23:47.962Z,59.92
2022-11-05T21:26:15.093Z,62.16
2022-11-05T21:28:41.889Z,61.40
2022-11-05T21:31:09.376Z,60.56
2022-11-05T21:33:37.468Z,60.62
2022-11-05T21:36:09.114Z,61.30
2022-11-05T21:38:35.953Z,61.06
2022-11-05T21:41:03.502Z,60.75
2022-11-05T21:43:30.267Z,61.07
2022-11-05T21:46:00.738Z,60.38
2022-11-05T21:48:27.320Z,59.94
2022-11-05T21:50:55.183Z,60.52
2022-11-05T21:53:21.609Z,59.89
2022-11-05T21:55:47.999Z,58.63
2022-11-05T21:58:16.680Z,59.95
2022-11-05T22:00:43.087Z,60.14
2022-11-05T22:03:09.498Z,58.93
2022-11-05T22:05:35.981Z,61.08
2022-11-05T22:08:03.931Z,59.26
2022-11-05T22:10:30.348Z,60.65
2022-11-05T22:12:56.971Z,59.99
2022-11-05T22:15:23.539Z,61.22
2022-11-05T22:17:50.690Z,59.92
2022-11-05T22:20:17.383Z,59.55
2022-11-05T22:22:44.535Z,59.44
2022-11-05T22:25:13.029Z,59.90
2022-11-05T22:27:39.552Z,59.63
2022-11-05T22:30:06.739Z,59.63
2022-11-05T22:32:33.179Z,60.96
2022-11-05T22:34:59.893Z,61.86
2022-11-05T22:37:26.370Z,60.95
2022-11-05T22:39:52.774Z,59.58
2022-11-05T22:42:20.667Z,60.81
2022-11-05T22:44:47.143Z,59.47
2022-11-05T22:47:13.551Z,61.63
2022-11-05T22:49:40.360Z,60.87
2022-11-05T22:52:06.873Z,60.43
2022-11-05T22:54:38.783Z,59.95
2022-11-05T22:57:05.609Z,61.23
2022-11-05T22:59:33.349Z,61.35
2022-11-05T23:02:01.869Z,62.17
2022-11-05T23:04:30.563Z,63.08
2022-11-05T23:06:56.979Z,63.48
2022-11-05T23:09:25.547Z,63.37
2022-11-05T23:11:53.537Z,63.46
2022-11-05T23:14:20.217Z,62.39
2022-11-05T23:16:47.965Z,62.36
2022-11-05T23:19:14.730Z,62.99
2022-11-05T23:21:41.322Z,63.19
2022-11-05T23:24:07.843Z,61.94
2022-11-05T23:26:35.614Z,62.69
2022-11-05T23:29:02.028Z,63.23
2022-11-05T23:31:28.421Z,63.22
2022-11-05T23:33:56.276Z,62.46
2022-11-05T23:36:22.668Z,64.00
2022-11-05T23:38:49.102Z,63.60
2022-11-05T23:41:15.676Z,64.65
2022-11-05T23:43:42.049Z,63.25
2022-11-05T23:46:08.458Z,62.83
2022-11-05T23:48:37.012Z,63.70
2022-11-05T23:51:06.906Z,64.00
2022-11-05T23:53:35.449Z,63.78
2022-11-05T23:56:04.353Z,62.57
2022-11-05T23:58:30.867Z,62.82
